HAB weather

Centro Medico ABC Santa Fe Heliport
Alvaro Obregon, Distrito Federal, Mexico

Public forecast

Using degrees Celsius for public forecast. Weather courtesy of forecast.io.

METAR (pilot weather report)

Closest report is Licenciado Benito Juarez International Airport, 12.8 nm (23.8 km) ENE. Retrieved 2019/08/24 20:48 UTC (24 minutes ago):

MMMX 242048Z 08005KT 6SM BKN020TCU 25/08 A3027 NOSIG RMK SLP050 57038 958 8/200 HZY

TAF (pilot weather forecast)

Closest forecast is Licenciado Benito Juarez International Airport, 12.8 nm (23.8 km) ENE. Retrieved 2019/08/24 18:44 UTC (2 hours ago):

TAF MMMX 241738Z 2418/2524 08010KT P6SM SCT020 TX25/2421Z TN15/2512Z FM242200 22010KT P6SM VC RA SCT020CB BKN080 TEMPO 2422/2502 4SM TSRA BKN020CB FM250300 14005KT P6SM SCT090 BKN220 FM251200 04005KT P6SM SCT090 FM251800 22010KT P6SM SCT020 BKN100 TEMPO 2521/2524 4SM TSRA BKN020CB